sensor_id;sensor_type;location;lat;lon;timestamp;P1;durP1;ratioP1;P2;durP2;ratioP2
9102;SDS011;4587;51.434;6.788;2022-11-20T00:01:39;24.20;;;19.83;;
9102;SDS011;4587;51.434;6.788;2022-11-20T00:04:05;22.40;;;18.67;;
9102;SDS011;4587;51.434;6.788;2022-11-20T00:06:31;22.80;;;18.33;;
9102;SDS011;4587;51.434;6.788;2022-11-20T00:08:57;29.63;;;21.03;;
9102;SDS011;4587;51.434;6.788;2022-11-20T00:11:26;24.23;;;19.40;;
9102;SDS011;4587;51.434;6.788;2022-11-20T00:13:54;26.23;;;20.23;;
9102;SDS011;4587;51.434;6.788;2022-11-20T00:16:22;25.73;;;20.00;;
9102;SDS011;4587;51.434;6.788;2022-11-20T00:18:50;25.07;;;20.13;;
9102;SDS011;4587;51.434;6.788;2022-11-20T00:21:20;25.27;;;19.57;;
9102;SDS011;4587;51.434;6.788;2022-11-20T00:23:47;25.97;;;20.67;;
9102;SDS011;4587;51.434;6.788;2022-11-20T00:26:15;25.43;;;20.27;;
9102;SDS011;4587;51.434;6.788;2022-11-20T00:28:42;24.83;;;19.97;;
9102;SDS011;4587;51.434;6.788;2022-11-20T00:31:13;26.33;;;20.27;;
9102;SDS011;4587;51.434;6.788;2022-11-20T00:33:40;25.00;;;20.17;;
9102;SDS011;4587;51.434;6.788;2022-11-20T00:36:07;28.00;;;20.60;;
9102;SDS011;4587;51.434;6.788;2022-11-20T00:38:38;26.73;;;21.13;;
9102;SDS011;4587;51.434;6.788;2022-11-20T00:41:05;25.80;;;20.60;;
9102;SDS011;4587;51.434;6.788;2022-11-20T00:43:36;25.67;;;20.67;;
9102;SDS011;4587;51.434;6.788;2022-11-20T00:46:06;28.00;;;21.53;;
9102;SDS011;4587;51.434;6.788;2022-11-20T00:48:37;23.67;;;19.60;;
9102;SDS011;4587;51.434;6.788;2022-11-20T00:51:02;26.73;;;21.73;;
9102;SDS011;4587;51.434;6.788;2022-11-20T00:53:28;29.53;;;22.33;;
9102;SDS011;4587;51.434;6.788;2022-11-20T00:55:55;26.00;;;21.10;;
9102;SDS011;4587;51.434;6.788;2022-11-20T00:58:22;25.43;;;20.50;;
9102;SDS011;4587;51.434;6.788;2022-11-20T01:00:49;24.53;;;20.00;;
9102;SDS011;4587;51.434;6.788;2022-11-20T01:03:18;27.93;;;20.97;;
9102;SDS011;4587;51.434;6.788;2022-11-20T01:05:44;25.30;;;20.53;;
9102;SDS011;4587;51.434;6.788;2022-11-20T01:08:09;28.03;;;21.30;;
9102;SDS011;4587;51.434;6.788;2022-11-20T01:10:35;27.07;;;21.50;;
9102;SDS011;4587;51.434;6.788;2022-11-20T01:13:01;25.53;;;20.83;;
9102;SDS011;4587;51.434;6.788;2022-11-20T01:15:45;25.53;;;20.90;;
9102;SDS011;4587;51.434;6.788;2022-11-20T01:18:11;28.40;;;20.43;;
9102;SDS011;4587;51.434;6.788;2022-11-20T01:20:36;25.03;;;19.73;;
9102;SDS011;4587;51.434;6.788;2022-11-20T01:23:02;25.90;;;20.50;;
9102;SDS011;4587;51.434;6.788;2022-11-20T01:25:28;28.97;;;20.77;;
9102;SDS011;4587;51.434;6.788;2022-11-20T01:27:54;25.40;;;20.50;;
9102;SDS011;4587;51.434;6.788;2022-11-20T01:30:20;25.67;;;20.20;;
9102;SDS011;4587;51.434;6.788;2022-11-20T01:32:45;25.43;;;20.23;;
9102;SDS011;4587;51.434;6.788;2022-11-20T01:35:11;25.10;;;19.97;;
9102;SDS011;4587;51.434;6.788;2022-11-20T01:37:37;27.97;;;20.90;;
9102;SDS011;4587;51.434;6.788;2022-11-20T01:40:02;30.07;;;20.47;;
9102;SDS011;4587;51.434;6.788;2022-11-20T01:42:28;26.60;;;21.53;;
9102;SDS011;4587;51.434;6.788;2022-11-20T01:48:16;30.57;;;20.87;;
9102;SDS011;4587;51.434;6.788;2022-11-20T01:50:43;27.50;;;21.37;;
9102;SDS011;4587;51.434;6.788;2022-11-20T01:53:10;26.70;;;20.90;;
9102;SDS011;4587;51.434;6.788;2022-11-20T01:55:43;25.00;;;20.37;;
9102;SDS011;4587;51.434;6.788;2022-11-20T01:58:15;27.63;;;20.60;;
9102;SDS011;4587;51.434;6.788;2022-11-20T02:00:44;26.57;;;20.97;;
9102;SDS011;4587;51.434;6.788;2022-11-20T02:03:11;26.13;;;20.00;;
9102;SDS011;4587;51.434;6.788;2022-11-20T02:05:49;24.13;;;20.50;;
9102;SDS011;4587;51.434;6.788;2022-11-20T02:08:22;28.20;;;21.43;;
9102;SDS011;4587;51.434;6.788;2022-11-20T02:10:48;26.33;;;21.27;;
9102;SDS011;4587;51.434;6.788;2022-11-20T02:13:14;26.17;;;20.80;;
9102;SDS011;4587;51.434;6.788;2022-11-20T02:15:59;24.43;;;20.37;;
9102;SDS011;4587;51.434;6.788;2022-11-20T02:18:25;26.63;;;21.10;;
9102;SDS011;4587;51.434;6.788;2022-11-20T02:20:53;27.67;;;21.50;;
9102;SDS011;4587;51.434;6.788;2022-11-20T02:26:28;27.80;;;20.73;;
9102;SDS011;4587;51.434;6.788;2022-11-20T02:28:56;27.47;;;21.33;;
9102;SDS011;4587;51.434;6.788;2022-11-20T02:31:23;28.30;;;21.33;;
9102;SDS011;4587;51.434;6.788;2022-11-20T02:33:54;28.77;;;21.70;;
9102;SDS011;4587;51.434;6.788;2022-11-20T02:36:23;23.70;;;19.63;;
9102;SDS011;4587;51.434;6.788;2022-11-20T02:38:51;26.57;;;21.53;;
9102;SDS011;4587;51.434;6.788;2022-11-20T02:41:16;27.47;;;21.57;;
9102;SDS011;4587;51.434;6.788;2022-11-20T02:43:42;26.40;;;21.30;;
9102;SDS011;4587;51.434;6.788;2022-11-20T02:46:07;27.17;;;21.10;;
9102;SDS011;4587;51.434;6.788;2022-11-20T02:48:33;26.67;;;21.53;;
9102;SDS011;4587;51.434;6.788;2022-11-20T02:50:59;25.20;;;20.43;;
9102;SDS011;4587;51.434;6.788;2022-11-20T02:53:25;28.50;;;21.53;;
9102;SDS011;4587;51.434;6.788;2022-11-20T02:55:50;29.47;;;21.20;;
9102;SDS011;4587;51.434;6.788;2022-11-20T02:58:16;29.10;;;21.87;;
9102;SDS011;4587;51.434;6.788;2022-11-20T03:00:41;26.77;;;21.07;;
9102;SDS011;4587;51.434;6.788;2022-11-20T03:03:07;24.73;;;20.63;;
9102;SDS011;4587;51.434;6.788;2022-11-20T03:05:32;25.80;;;21.03;;
9102;SDS011;4587;51.434;6.788;2022-11-20T03:07:58;26.00;;;21.40;;
9102;SDS011;4587;51.434;6.788;2022-11-20T03:10:24;26.13;;;20.20;;
9102;SDS011;4587;51.434;6.788;2022-11-20T03:12:53;30.20;;;20.60;;
9102;SDS011;4587;51.434;6.788;2022-11-20T03:15:20;28.23;;;21.03;;
9102;SDS011;4587;51.434;6.788;2022-11-20T03:17:46;26.83;;;20.33;;
9102;SDS011;4587;51.434;6.788;2022-11-20T03:20:11;25.93;;;20.60;;
9102;SDS011;4587;51.434;6.788;2022-11-20T03:22:37;26.30;;;20.07;;
9102;SDS011;4587;51.434;6.788;2022-11-20T03:25:03;26.60;;;21.07;;
9102;SDS011;4587;51.434;6.788;2022-11-20T03:27:31;26.67;;;20.70;;
9102;SDS011;4587;51.434;6.788;2022-11-20T03:29:58;26.47;;;20.57;;
9102;SDS011;4587;51.434;6.788;2022-11-20T03:32:24;25.37;;;20.27;;
9102;SDS011;4587;51.434;6.788;2022-11-20T03:34:49;27.97;;;21.60;;
9102;SDS011;4587;51.434;6.788;2022-11-20T03:37:15;26.07;;;20.53;;
9102;SDS011;4587;51.434;6.788;2022-11-20T03:39:40;28.93;;;21.17;;
9102;SDS011;4587;51.434;6.788;2022-11-20T03:42:06;26.27;;;20.97;;
9102;SDS011;4587;51.434;6.788;2022-11-20T03:44:51;26.00;;;21.07;;
9102;SDS011;4587;51.434;6.788;2022-11-20T03:47:17;27.73;;;20.53;;
9102;SDS011;4587;51.434;6.788;2022-11-20T03:49:42;26.57;;;20.63;;
9102;SDS011;4587;51.434;6.788;2022-11-20T03:52:08;25.93;;;21.00;;
9102;SDS011;4587;51.434;6.788;2022-11-20T03:54:33;26.20;;;21.47;;
9102;SDS011;4587;51.434;6.788;2022-11-20T03:56:59;28.73;;;21.87;;
9102;SDS011;4587;51.434;6.788;2022-11-20T03:59:24;25.83;;;20.97;;
9102;SDS011;4587;51.434;6.788;2022-11-20T04:01:50;29.90;;;21.37;;
9102;SDS011;4587;51.434;6.788;2022-11-20T04:04:15;25.70;;;20.77;;
9102;SDS011;4587;51.434;6.788;2022-11-20T04:06:41;26.63;;;20.00;;
9102;SDS011;4587;51.434;6.788;2022-11-20T04:09:06;25.83;;;20.87;;
9102;SDS011;4587;51.434;6.788;2022-11-20T04:11:33;27.93;;;21.33;;
9102;SDS011;4587;51.434;6.788;2022-11-20T04:14:01;28.23;;;20.13;;
9102;SDS011;4587;51.434;6.788;2022-11-20T04:16:28;23.43;;;19.67;;
9102;SDS011;4587;51.434;6.788;2022-11-20T04:18:56;27.50;;;19.80;;
9102;SDS011;4587;51.434;6.788;2022-11-20T04:21:24;23.20;;;19.63;;
9102;SDS011;4587;51.434;6.788;2022-11-20T04:23:50;23.80;;;20.07;;
9102;SDS011;4587;51.434;6.788;2022-11-20T04:26:17;25.10;;;20.53;;
9102;SDS011;4587;51.434;6.788;2022-11-20T04:28:43;27.40;;;20.60;;
9102;SDS011;4587;51.434;6.788;2022-11-20T04:31:12;25.20;;;19.87;;
9102;SDS011;4587;51.434;6.788;2022-11-20T04:33:39;24.43;;;19.23;;
9102;SDS011;4587;51.434;6.788;2022-11-20T04:36:06;23.93;;;20.20;;
9102;SDS011;4587;51.434;6.788;2022-11-20T04:38:37;23.47;;;19.40;;
9102;SDS011;4587;51.434;6.788;2022-11-20T04:41:04;26.30;;;19.87;;
9102;SDS011;4587;51.434;6.788;2022-11-20T04:43:31;28.63;;;20.60;;
9102;SDS011;4587;51.434;6.788;2022-11-20T04:45:58;24.27;;;19.40;;
9102;SDS011;4587;51.434;6.788;2022-11-20T04:48:25;24.83;;;20.10;;
9102;SDS011;4587;51.434;6.788;2022-11-20T04:50:52;22.77;;;19.43;;
9102;SDS011;4587;51.434;6.788;2022-11-20T04:53:18;24.10;;;20.10;;
9102;SDS011;4587;51.434;6.788;2022-11-20T04:55:45;23.57;;;19.40;;
9102;SDS011;4587;51.434;6.788;2022-11-20T04:58:11;26.77;;;20.23;;
9102;SDS011;4587;51.434;6.788;2022-11-20T05:00:37;24.57;;;19.90;;
9102;SDS011;4587;51.434;6.788;2022-11-20T05:03:03;23.27;;;19.10;;
9102;SDS011;4587;51.434;6.788;2022-11-20T05:05:28;24.10;;;19.73;;
9102;SDS011;4587;51.434;6.788;2022-11-20T05:07:57;24.90;;;19.50;;
9102;SDS011;4587;51.434;6.788;2022-11-20T05:10:24;22.10;;;18.47;;
9102;SDS011;4587;51.434;6.788;2022-11-20T05:12:50;24.23;;;19.60;;
9102;SDS011;4587;51.434;6.788;2022-11-20T05:15:15;23.97;;;19.83;;
9102;SDS011;4587;51.434;6.788;2022-11-20T05:17:46;23.20;;;19.67;;
9102;SDS011;4587;51.434;6.788;2022-11-20T05:20:17;23.90;;;19.67;;
9102;SDS011;4587;51.434;6.788;2022-11-20T05:22:44;26.70;;;20.87;;
9102;SDS011;4587;51.434;6.788;2022-11-20T05:25:10;23.50;;;18.47;;
9102;SDS011;4587;51.434;6.788;2022-11-20T05:27:36;27.47;;;20.00;;
9102;SDS011;4587;51.434;6.788;2022-11-20T05:30:02;24.77;;;19.70;;
9102;SDS011;4587;51.434;6.788;2022-11-20T05:32:29;24.47;;;19.00;;
9102;SDS011;4587;51.434;6.788;2022-11-20T05:34:54;23.53;;;19.47;;
9102;SDS011;4587;51.434;6.788;2022-11-20T05:37:20;24.83;;;20.53;;
9102;SDS011;4587;51.434;6.788;2022-11-20T05:39:45;23.97;;;20.07;;
9102;SDS011;4587;51.434;6.788;2022-11-20T05:42:11;24.13;;;20.50;;
9102;SDS011;4587;51.434;6.788;2022-11-20T05:44:55;25.40;;;22.20;;
9102;SDS011;4587;51.434;6.788;2022-11-20T05:47:21;30.67;;;24.10;;
9102;SDS011;4587;51.434;6.788;2022-11-20T05:49:47;30.20;;;24.37;;
9102;SDS011;4587;51.434;6.788;2022-11-20T05:52:12;31.33;;;26.30;;
9102;SDS011;4587;51.434;6.788;2022-11-20T05:54:38;31.33;;;26.20;;
9102;SDS011;4587;51.434;6.788;2022-11-20T05:57:03;31.20;;;25.67;;
9102;SDS011;4587;51.434;6.788;2022-11-20T05:59:29;33.33;;;25.83;;
9102;SDS011;4587;51.434;6.788;2022-11-20T06:01:54;33.30;;;26.37;;
9102;SDS011;4587;51.434;6.788;2022-11-20T06:04:20;34.03;;;27.30;;
9102;SDS011;4587;51.434;6.788;2022-11-20T06:06:45;34.40;;;27.80;;
9102;SDS011;4587;51.434;6.788;2022-11-20T06:09:11;32.10;;;26.70;;
9102;SDS011;4587;51.434;6.788;2022-11-20T06:11:36;33.20;;;26.97;;
9102;SDS011;4587;51.434;6.788;2022-11-20T06:14:02;32.33;;;27.13;;
9102;SDS011;4587;51.434;6.788;2022-11-20T06:16:28;33.03;;;27.73;;
9102;SDS011;4587;51.434;6.788;2022-11-20T06:18:53;35.43;;;26.90;;
9102;SDS011;4587;51.434;6.788;2022-11-20T06:21:20;32.43;;;27.43;;
9102;SDS011;4587;51.434;6.788;2022-11-20T06:23:46;34.27;;;26.73;;
9102;SDS011;4587;51.434;6.788;2022-11-20T06:26:14;33.20;;;26.70;;
9102;SDS011;4587;51.434;6.788;2022-11-20T06:28:41;33.63;;;27.73;;
9102;SDS011;4587;51.434;6.788;2022-11-20T06:31:09;32.93;;;26.97;;
9102;SDS011;4587;51.434;6.788;2022-11-20T06:33:36;33.67;;;27.30;;
9102;SDS011;4587;51.434;6.788;2022-11-20T06:36:02;35.47;;;28.63;;
9102;SDS011;4587;51.434;6.788;2022-11-20T06:38:28;32.67;;;27.63;;
9102;SDS011;4587;51.434;6.788;2022-11-20T06:40:54;35.50;;;28.07;;
9102;SDS011;4587;51.434;6.788;2022-11-20T06:43:20;32.50;;;26.90;;
9102;SDS011;4587;51.434;6.788;2022-11-20T06:45:46;32.87;;;27.60;;
9102;SDS011;4587;51.434;6.788;2022-11-20T06:48:11;34.87;;;27.10;;
9102;SDS011;4587;51.434;6.788;2022-11-20T06:50:37;33.53;;;26.20;;
9102;SDS011;4587;51.434;6.788;2022-11-20T06:53:03;32.23;;;26.80;;
9102;SDS011;4587;51.434;6.788;2022-11-20T06:55:30;34.37;;;27.83;;
9102;SDS011;4587;51.434;6.788;2022-11-20T06:57:56;32.23;;;26.50;;
9102;SDS011;4587;51.434;6.788;2022-11-20T07:00:22;31.53;;;25.83;;
9102;SDS011;4587;51.434;6.788;2022-11-20T07:02:48;31.27;;;25.83;;
9102;SDS011;4587;51.434;6.788;2022-11-20T07:05:13;31.23;;;25.10;;
9102;SDS011;4587;51.434;6.788;2022-11-20T07:07:39;31.57;;;26.43;;
9102;SDS011;4587;51.434;6.788;2022-11-20T07:10:05;29.23;;;24.00;;
9102;SDS011;4587;51.434;6.788;2022-11-20T07:12:30;31.63;;;25.87;;
9102;SDS011;4587;51.434;6.788;2022-11-20T07:14:56;30.70;;;25.07;;
9102;SDS011;4587;51.434;6.788;2022-11-20T07:17:21;30.50;;;25.30;;
9102;SDS011;4587;51.434;6.788;2022-11-20T07:19:47;32.60;;;25.80;;
9102;SDS011;4587;51.434;6.788;2022-11-20T07:22:12;30.53;;;25.30;;
9102;SDS011;4587;51.434;6.788;2022-11-20T07:24:38;30.57;;;24.70;;
9102;SDS011;4587;51.434;6.788;2022-11-20T07:27:06;29.27;;;24.57;;
9102;SDS011;4587;51.434;6.788;2022-11-20T07:29:32;29.03;;;25.47;;
9102;SDS011;4587;51.434;6.788;2022-11-20T07:31:58;33.10;;;26.37;;
9102;SDS011;4587;51.434;6.788;2022-11-20T07:34:24;30.20;;;25.23;;
9102;SDS011;4587;51.434;6.788;2022-11-20T07:36:50;28.30;;;23.80;;
9102;SDS011;4587;51.434;6.788;2022-11-20T07:39:15;29.40;;;24.93;;
9102;SDS011;4587;51.434;6.788;2022-11-20T07:41:41;30.20;;;25.07;;
9102;SDS011;4587;51.434;6.788;2022-11-20T07:44:06;32.93;;;25.23;;
9102;SDS011;4587;51.434;6.788;2022-11-20T07:46:32;30.50;;;24.40;;
9102;SDS011;4587;51.434;6.788;2022-11-20T07:48:57;31.10;;;24.07;;
9102;SDS011;4587;51.434;6.788;2022-11-20T07:51:23;28.77;;;24.87;;
9102;SDS011;4587;51.434;6.788;2022-11-20T07:53:50;32.77;;;24.20;;
9102;SDS011;4587;51.434;6.788;2022-11-20T07:56:18;28.47;;;23.97;;
9102;SDS011;4587;51.434;6.788;2022-11-20T07:58:43;30.53;;;24.07;;
9102;SDS011;4587;51.434;6.788;2022-11-20T08:01:09;27.53;;;23.47;;
9102;SDS011;4587;51.434;6.788;2022-11-20T08:03:34;27.80;;;23.40;;
9102;SDS011;4587;51.434;6.788;2022-11-20T08:06:02;30.53;;;23.50;;
9102;SDS011;4587;51.434;6.788;2022-11-20T08:08:28;31.00;;;23.90;;
9102;SDS011;4587;51.434;6.788;2022-11-20T08:10:56;31.27;;;23.83;;
9102;SDS011;4587;51.434;6.788;2022-11-20T08:13:42;30.87;;;23.93;;
9102;SDS011;4587;51.434;6.788;2022-11-20T08:16:36;28.17;;;23.77;;
9102;SDS011;4587;51.434;6.788;2022-11-20T08:19:02;28.13;;;24.40;;
9102;SDS011;4587;51.434;6.788;2022-11-20T08:21:28;33.83;;;23.53;;
9102;SDS011;4587;51.434;6.788;2022-11-20T08:23:55;29.93;;;22.70;;
9102;SDS011;4587;51.434;6.788;2022-11-20T08:26:22;27.93;;;22.43;;
9102;SDS011;4587;51.434;6.788;2022-11-20T08:28:48;28.27;;;22.77;;
9102;SDS011;4587;51.434;6.788;2022-11-20T08:31:14;27.63;;;22.23;;
9102;SDS011;4587;51.434;6.788;2022-11-20T08:33:39;28.43;;;21.57;;
9102;SDS011;4587;51.434;6.788;2022-11-20T08:36:05;24.47;;;21.03;;
9102;SDS011;4587;51.434;6.788;2022-11-20T08:38:31;27.10;;;21.60;;
9102;SDS011;4587;51.434;6.788;2022-11-20T08:40:57;24.93;;;20.13;;
9102;SDS011;4587;51.434;6.788;2022-11-20T08:43:43;23.63;;;20.23;;
9102;SDS011;4587;51.434;6.788;2022-11-20T08:46:08;26.00;;;21.03;;
9102;SDS011;4587;51.434;6.788;2022-11-20T08:48:34;26.10;;;20.57;;
9102;SDS011;4587;51.434;6.788;2022-11-20T08:50:59;28.03;;;21.27;;
9102;SDS011;4587;51.434;6.788;2022-11-20T08:53:25;24.50;;;20.50;;
9102;SDS011;4587;51.434;6.788;2022-11-20T08:55:51;23.50;;;20.33;;
9102;SDS011;4587;51.434;6.788;2022-11-20T08:58:17;24.53;;;19.97;;
9102;SDS011;4587;51.434;6.788;2022-11-20T09:00:42;24.57;;;20.33;;
9102;SDS011;4587;51.434;6.788;2022-11-20T09:03:08;23.40;;;20.67;;
9102;SDS011;4587;51.434;6.788;2022-11-20T09:05:33;25.83;;;21.13;;
9102;SDS011;4587;51.434;6.788;2022-11-20T09:07:59;26.73;;;20.47;;
9102;SDS011;4587;51.434;6.788;2022-11-20T09:10:25;31.53;;;26.97;;
9102;SDS011;4587;51.434;6.788;2022-11-20T09:12:52;31.80;;;26.27;;
9102;SDS011;4587;51.434;6.788;2022-11-20T09:15:17;27.23;;;22.80;;
9102;SDS011;4587;51.434;6.788;2022-11-20T09:17:50;27.23;;;22.13;;
9102;SDS011;4587;51.434;6.788;2022-11-20T09:20:19;24.40;;;20.93;;
9102;SDS011;4587;51.434;6.788;2022-11-20T09:22:45;26.57;;;20.10;;
9102;SDS011;4587;51.434;6.788;2022-11-20T09:25:11;23.60;;;19.23;;
9102;SDS011;4587;51.434;6.788;2022-11-20T09:27:36;23.87;;;19.87;;
9102;SDS011;4587;51.434;6.788;2022-11-20T09:30:02;23.27;;;18.80;;
9102;SDS011;4587;51.434;6.788;2022-11-20T09:32:28;23.70;;;18.83;;
9102;SDS011;4587;51.434;6.788;2022-11-20T09:34:54;24.73;;;19.43;;
9102;SDS011;4587;51.434;6.788;2022-11-20T09:37:19;22.67;;;18.33;;
9102;SDS011;4587;51.434;6.788;2022-11-20T09:39:45;20.37;;;17.30;;
9102;SDS011;4587;51.434;6.788;2022-11-20T09:42:14;20.90;;;17.30;;
9102;SDS011;4587;51.434;6.788;2022-11-20T09:50:41;21.13;;;17.67;;
9102;SDS011;4587;51.434;6.788;2022-11-20T09:56:20;20.20;;;16.20;;
9102;SDS011;4587;51.434;6.788;2022-11-20T09:58:50;21.23;;;16.77;;
9102;SDS011;4587;51.434;6.788;2022-11-20T10:01:18;18.37;;;15.73;;
9102;SDS011;4587;51.434;6.788;2022-11-20T10:09:32;20.63;;;17.20;;
9102;SDS011;4587;51.434;6.788;2022-11-20T10:23:02;21.03;;;17.53;;
9102;SDS011;4587;51.434;6.788;2022-11-20T10:25:51;24.77;;;17.87;;
9102;SDS011;4587;51.434;6.788;2022-11-20T10:34:00;21.57;;;18.17;;
9102;SDS011;4587;51.434;6.788;2022-11-20T10:36:35;24.07;;;18.60;;
9102;SDS011;4587;51.434;6.788;2022-11-20T10:41:37;24.23;;;19.37;;
9102;SDS011;4587;51.434;6.788;2022-11-20T10:44:11;21.43;;;18.07;;
9102;SDS011;4587;51.434;6.788;2022-11-20T10:47:13;19.37;;;16.53;;
9102;SDS011;4587;51.434;6.788;2022-11-20T10:49:41;21.83;;;17.50;;
9102;SDS011;4587;51.434;6.788;2022-11-20T10:54:58;19.23;;;16.80;;
9102;SDS011;4587;51.434;6.788;2022-11-20T10:57:56;21.30;;;17.43;;
9102;SDS011;4587;51.434;6.788;2022-11-20T11:00:33;20.27;;;16.47;;
9102;SDS011;4587;51.434;6.788;2022-11-20T11:02:59;20.30;;;16.67;;
9102;SDS011;4587;51.434;6.788;2022-11-20T11:07:59;19.50;;;16.27;;
9102;SDS011;4587;51.434;6.788;2022-11-20T11:13:19;21.00;;;18.75;;
9102;SDS011;4587;51.434;6.788;2022-11-20T11:15:46;23.63;;;18.13;;
9102;SDS011;4587;51.434;6.788;2022-11-20T11:18:22;19.63;;;17.43;;
9102;SDS011;4587;51.434;6.788;2022-11-20T11:20:52;20.00;;;16.80;;
9102;SDS011;4587;51.434;6.788;2022-11-20T11:23:26;18.80;;;16.70;;
9102;SDS011;4587;51.434;6.788;2022-11-20T11:25:56;21.53;;;17.87;;
9102;SDS011;4587;51.434;6.788;2022-11-20T11:28:23;22.80;;;18.30;;
9102;SDS011;4587;51.434;6.788;2022-11-20T11:30:52;23.00;;;18.60;;
9102;SDS011;4587;51.434;6.788;2022-11-20T11:33:19;23.30;;;18.03;;
9102;SDS011;4587;51.434;6.788;2022-11-20T11:35:53;20.00;;;17.80;;
9102;SDS011;4587;51.434;6.788;2022-11-20T11:38:39;22.10;;;18.60;;
9102;SDS011;4587;51.434;6.788;2022-11-20T11:41:09;21.67;;;17.43;;
9102;SDS011;4587;51.434;6.788;2022-11-20T11:43:48;21.57;;;15.90;;
9102;SDS011;4587;51.434;6.788;2022-11-20T11:46:35;22.03;;;17.10;;
9102;SDS011;4587;51.434;6.788;2022-11-20T11:54:42;20.57;;;17.07;;
9102;SDS011;4587;51.434;6.788;2022-11-20T11:57:15;18.30;;;15.97;;
9102;SDS011;4587;51.434;6.788;2022-11-20T12:11:04;22.73;;;17.43;;
9102;SDS011;4587;51.434;6.788;2022-11-20T12:13:57;21.10;;;17.33;;
9102;SDS011;4587;51.434;6.788;2022-11-20T12:16:26;22.30;;;17.83;;
9102;SDS011;4587;51.434;6.788;2022-11-20T12:18:53;21.93;;;17.57;;
9102;SDS011;4587;51.434;6.788;2022-11-20T12:29:43;23.23;;;17.23;;
9102;SDS011;4587;51.434;6.788;2022-11-20T12:34:52;23.37;;;17.07;;
9102;SDS011;4587;51.434;6.788;2022-11-20T12:43:17;20.23;;;16.50;;
9102;SDS011;4587;51.434;6.788;2022-11-20T12:48:41;20.77;;;16.20;;
9102;SDS011;4587;51.434;6.788;2022-11-20T12:51:23;21.27;;;17.30;;
9102;SDS011;4587;51.434;6.788;2022-11-20T13:07:44;21.67;;;17.23;;
9102;SDS011;4587;51.434;6.788;2022-11-20T13:10:13;20.33;;;16.80;;
9102;SDS011;4587;51.434;6.788;2022-11-20T13:13:33;21.63;;;17.27;;
9102;SDS011;4587;51.434;6.788;2022-11-20T13:18:44;23.57;;;17.37;;
9102;SDS011;4587;51.434;6.788;2022-11-20T13:21:17;20.63;;;16.83;;
9102;SDS011;4587;51.434;6.788;2022-11-20T13:23:45;19.47;;;16.63;;
9102;SDS011;4587;51.434;6.788;2022-11-20T13:26:16;20.77;;;16.47;;
9102;SDS011;4587;51.434;6.788;2022-11-20T13:28:46;21.23;;;16.63;;
9102;SDS011;4587;51.434;6.788;2022-11-20T13:31:33;22.10;;;17.17;;
9102;SDS011;4587;51.434;6.788;2022-11-20T13:34:01;22.27;;;17.17;;
9102;SDS011;4587;51.434;6.788;2022-11-20T13:36:30;22.73;;;17.50;;
9102;SDS011;4587;51.434;6.788;2022-11-20T13:38:57;21.10;;;17.43;;
9102;SDS011;4587;51.434;6.788;2022-11-20T13:43:54;22.77;;;17.03;;
9102;SDS011;4587;51.434;6.788;2022-11-20T13:46:34;23.13;;;18.03;;
9102;SDS011;4587;51.434;6.788;2022-11-20T13:49:53;23.60;;;18.67;;
9102;SDS011;4587;51.434;6.788;2022-11-20T13:55:02;23.97;;;19.33;;
9102;SDS011;4587;51.434;6.788;2022-11-20T14:00:29;24.33;;;19.07;;
9102;SDS011;4587;51.434;6.788;2022-11-20T14:05:51;22.57;;;18.00;;
9102;SDS011;4587;51.434;6.788;2022-11-20T14:11:28;22.20;;;18.30;;
9102;SDS011;4587;51.434;6.788;2022-11-20T14:13:59;27.73;;;19.27;;
9102;SDS011;4587;51.434;6.788;2022-11-20T14:16:45;23.77;;;19.13;;
9102;SDS011;4587;51.434;6.788;2022-11-20T14:21:46;25.87;;;19.80;;
9102;SDS011;4587;51.434;6.788;2022-11-20T14:24:12;25.20;;;19.57;;
9102;SDS011;4587;51.434;6.788;2022-11-20T14:26:43;27.10;;;20.10;;
9102;SDS011;4587;51.434;6.788;2022-11-20T14:29:17;22.77;;;19.70;;
9102;SDS011;4587;51.434;6.788;2022-11-20T14:31:45;25.67;;;20.37;;
9102;SDS011;4587;51.434;6.788;2022-11-20T14:34:15;25.73;;;20.17;;
9102;SDS011;4587;51.434;6.788;2022-11-20T14:36:44;25.63;;;20.03;;
9102;SDS011;4587;51.434;6.788;2022-11-20T14:39:48;26.17;;;21.20;;
9102;SDS011;4587;51.434;6.788;2022-11-20T14:42:02;27.33;;;21.37;;
9102;SDS011;4587;51.434;6.788;2022-11-20T14:44:39;26.73;;;20.13;;
9102;SDS011;4587;51.434;6.788;2022-11-20T14:47:06;26.10;;;19.87;;
9102;SDS011;4587;51.434;6.788;2022-11-20T14:49:35;27.17;;;20.60;;
9102;SDS011;4587;51.434;6.788;2022-11-20T14:52:09;25.43;;;20.50;;
9102;SDS011;4587;51.434;6.788;2022-11-20T14:54:44;27.67;;;21.60;;
9102;SDS011;4587;51.434;6.788;2022-11-20T14:57:20;25.57;;;21.27;;
9102;SDS011;4587;51.434;6.788;2022-11-20T15:02:47;27.60;;;22.37;;
9102;SDS011;4587;51.434;6.788;2022-11-20T15:05:14;29.60;;;21.90;;
9102;SDS011;4587;51.434;6.788;2022-11-20T15:07:42;28.90;;;21.57;;
9102;SDS011;4587;51.434;6.788;2022-11-20T15:10:13;27.63;;;21.63;;
9102;SDS011;4587;51.434;6.788;2022-11-20T15:12:49;28.87;;;21.80;;
9102;SDS011;4587;51.434;6.788;2022-11-20T15:15:19;29.23;;;21.80;;
9102;SDS011;4587;51.434;6.788;2022-11-20T15:17:49;31.87;;;22.80;;
9102;SDS011;4587;51.434;6.788;2022-11-20T15:20:15;32.20;;;23.10;;
9102;SDS011;4587;51.434;6.788;2022-11-20T15:22:42;29.73;;;24.43;;
9102;SDS011;4587;51.434;6.788;2022-11-20T15:25:11;31.20;;;24.23;;
9102;SDS011;4587;51.434;6.788;2022-11-20T15:27:42;31.33;;;24.03;;
9102;SDS011;4587;51.434;6.788;2022-11-20T15:30:12;30.00;;;24.20;;
9102;SDS011;4587;51.434;6.788;2022-11-20T15:32:40;31.73;;;23.97;;
9102;SDS011;4587;51.434;6.788;2022-11-20T15:35:06;32.73;;;24.13;;
9102;SDS011;4587;51.434;6.788;2022-11-20T15:37:31;33.70;;;24.43;;
9102;SDS011;4587;51.434;6.788;2022-11-20T15:39:57;31.40;;;23.93;;
9102;SDS011;4587;51.434;6.788;2022-11-20T15:42:22;30.10;;;23.33;;
9102;SDS011;4587;51.434;6.788;2022-11-20T15:44:48;33.40;;;23.40;;
9102;SDS011;4587;51.434;6.788;2022-11-20T15:47:13;32.53;;;24.17;;
9102;SDS011;4587;51.434;6.788;2022-11-20T15:49:39;34.00;;;23.70;;
9102;SDS011;4587;51.434;6.788;2022-11-20T15:52:05;30.10;;;23.50;;
9102;SDS011;4587;51.434;6.788;2022-11-20T15:54:30;32.07;;;23.70;;
9102;SDS011;4587;51.434;6.788;2022-11-20T15:56:56;33.60;;;25.63;;
9102;SDS011;4587;51.434;6.788;2022-11-20T15:59:21;33.63;;;26.50;;
9102;SDS011;4587;51.434;6.788;2022-11-20T16:01:47;33.77;;;25.77;;
9102;SDS011;4587;51.434;6.788;2022-11-20T16:04:13;34.57;;;24.57;;
9102;SDS011;4587;51.434;6.788;2022-11-20T16:06:40;33.33;;;25.17;;
9102;SDS011;4587;51.434;6.788;2022-11-20T16:09:06;35.17;;;25.73;;
9102;SDS011;4587;51.434;6.788;2022-11-20T16:11:32;35.10;;;25.67;;
9102;SDS011;4587;51.434;6.788;2022-11-20T16:14:00;33.90;;;25.27;;
9102;SDS011;4587;51.434;6.788;2022-11-20T16:16:44;35.30;;;26.67;;
9102;SDS011;4587;51.434;6.788;2022-11-20T16:19:10;37.23;;;26.60;;
9102;SDS011;4587;51.434;6.788;2022-11-20T16:21:40;36.83;;;25.90;;
9102;SDS011;4587;51.434;6.788;2022-11-20T16:24:07;36.50;;;25.20;;
9102;SDS011;4587;51.434;6.788;2022-11-20T16:26:34;41.50;;;27.97;;
9102;SDS011;4587;51.434;6.788;2022-11-20T16:29:00;31.07;;;23.90;;
9102;SDS011;4587;51.434;6.788;2022-11-20T16:31:27;36.47;;;25.17;;
9102;SDS011;4587;51.434;6.788;2022-11-20T16:33:54;39.13;;;26.03;;
9102;SDS011;4587;51.434;6.788;2022-11-20T16:36:22;38.17;;;26.30;;
9102;SDS011;4587;51.434;6.788;2022-11-20T16:38:55;35.17;;;24.00;;
9102;SDS011;4587;51.434;6.788;2022-11-20T16:41:22;32.17;;;23.57;;
9102;SDS011;4587;51.434;6.788;2022-11-20T16:43:51;29.17;;;22.00;;
9102;SDS011;4587;51.434;6.788;2022-11-20T16:46:24;36.63;;;22.10;;
9102;SDS011;4587;51.434;6.788;2022-11-20T16:48:54;38.53;;;23.33;;
9102;SDS011;4587;51.434;6.788;2022-11-20T16:51:20;35.37;;;24.60;;
9102;SDS011;4587;51.434;6.788;2022-11-20T16:53:46;42.07;;;28.73;;
9102;SDS011;4587;51.434;6.788;2022-11-20T16:56:15;35.50;;;24.80;;
9102;SDS011;4587;51.434;6.788;2022-11-20T16:58:45;37.53;;;25.07;;